createdAt,value
2022-08-17T00:00:05.671Z,79.49
2022-08-17T00:02:36.781Z,80.63
2022-08-17T00:05:10.809Z,80.68
2022-08-17T00:07:38.309Z,80.65
2022-08-17T00:10:06.658Z,80.73
2022-08-17T00:12:44.350Z,81.18
2022-08-17T00:15:13.748Z,81.41
2022-08-17T00:17:43.135Z,82.31
2022-08-17T00:20:13.355Z,83.98
2022-08-17T00:22:42.533Z,83.01
2022-08-17T00:25:14.143Z,83.93
2022-08-17T00:27:42.174Z,83.09
2022-08-17T00:30:12.331Z,84.18
2022-08-17T00:33:14.414Z,86.22
2022-08-17T00:35:30.660Z,84.78
2022-08-17T00:37:58.228Z,84.20
2022-08-17T00:40:27.159Z,83.49
2022-08-17T00:43:14.060Z,82.56
2022-08-17T00:45:42.141Z,82.63
2022-08-17T00:48:29.109Z,83.69
2022-08-17T00:51:02.403Z,83.66
2022-08-17T00:53:32.073Z,84.16
2022-08-17T00:56:02.572Z,85.04
2022-08-17T00:58:36.545Z,84.82
2022-08-17T01:01:06.381Z,85.51
2022-08-17T01:03:36.663Z,86.70
2022-08-17T01:06:07.095Z,87.25
2022-08-17T01:08:36.744Z,88.70
2022-08-17T01:11:05.378Z,87.42
2022-08-17T01:13:40.657Z,86.38
2022-08-17T01:16:19.623Z,86.56
2022-08-17T01:18:52.076Z,87.28
2022-08-17T01:21:25.443Z,86.99
2022-08-17T01:23:54.311Z,87.65
2022-08-17T01:26:22.801Z,86.23
2022-08-17T01:28:54.687Z,86.65
2022-08-17T01:31:25.152Z,87.36
2022-08-17T01:33:53.271Z,88.07
2022-08-17T01:36:20.878Z,88.09
2022-08-17T01:38:48.403Z,88.04
2022-08-17T01:41:17.865Z,88.06
2022-08-17T01:43:51.859Z,88.08
2022-08-17T01:46:23.796Z,89.55
2022-08-17T01:48:51.474Z,89.00
2022-08-17T01:51:20.119Z,88.16
2022-08-17T01:53:51.484Z,88.44
2022-08-17T01:56:23.450Z,89.76
2022-08-17T01:58:51.339Z,88.73
2022-08-17T02:01:22.212Z,89.09
2022-08-17T02:03:56.327Z,90.40
2022-08-17T02:06:28.942Z,89.26
2022-08-17T02:09:02.340Z,92.20
2022-08-17T02:11:34.762Z,91.43
2022-08-17T02:14:04.118Z,88.98
2022-08-17T02:16:37.027Z,89.25
2022-08-17T02:19:07.910Z,90.60
2022-08-17T02:21:35.624Z,91.51
2022-08-17T02:24:04.151Z,94.00
2022-08-17T02:26:33.121Z,91.78
2022-08-17T02:29:00.630Z,91.69
2022-08-17T02:31:28.224Z,91.59
2022-08-17T02:33:56.638Z,92.72
2022-08-17T02:36:32.239Z,92.61
2022-08-17T02:39:00.704Z,91.75
2022-08-17T02:41:28.333Z,92.02
2022-08-17T02:43:57.165Z,93.94
2022-08-17T02:46:24.685Z,100.00
2022-08-17T02:48:52.184Z,100.00
2022-08-17T02:51:19.667Z,100.00
2022-08-17T02:53:47.661Z,100.00
2022-08-17T02:56:15.354Z,96.94
2022-08-17T02:58:42.857Z,94.80
2022-08-17T03:01:12.638Z,94.64
2022-08-17T03:03:41.112Z,93.81
2022-08-17T03:06:09.521Z,94.53
2022-08-17T03:08:37.379Z,93.70
2022-08-17T03:11:05.056Z,94.68
2022-08-17T03:13:32.581Z,94.86
2022-08-17T03:16:00.183Z,95.02
2022-08-17T03:18:29.045Z,94.79
2022-08-17T03:20:58.868Z,98.84
2022-08-17T03:23:28.055Z,99.11
2022-08-17T03:25:57.653Z,97.12
2022-08-17T03:28:25.873Z,95.90
2022-08-17T03:30:53.727Z,97.06
2022-08-17T03:33:21.625Z,96.92
2022-08-17T03:35:50.929Z,97.05
2022-08-17T03:38:18.724Z,96.10
2022-08-17T03:40:58.967Z,96.57
2022-08-17T03:43:29.918Z,96.08
2022-08-17T03:46:28.248Z,96.29
2022-08-17T03:49:20.436Z,96.94
2022-08-17T03:52:07.018Z,97.77
2022-08-17T03:54:52.409Z,98.19
2022-08-17T03:57:20.125Z,100.00
2022-08-17T03:59:47.889Z,100.00
2022-08-17T04:02:19.713Z,98.20
2022-08-17T04:04:50.578Z,97.01
2022-08-17T04:07:19.782Z,96.26
2022-08-17T04:09:47.364Z,95.80
2022-08-17T04:12:15.873Z,93.87
2022-08-17T04:14:53.209Z,92.91
2022-08-17T04:17:23.492Z,92.45
2022-08-17T04:19:51.034Z,92.58
2022-08-17T04:22:31.347Z,92.70
2022-08-17T04:25:05.829Z,93.02
2022-08-17T04:27:33.408Z,92.69
2022-08-17T04:30:00.977Z,91.07
2022-08-17T04:33:04.468Z,87.05
2022-08-17T04:35:20.107Z,78.09
2022-08-17T04:37:49.394Z,73.36
2022-08-17T04:40:34.972Z,69.12
2022-08-17T04:43:04.347Z,63.37
2022-08-17T04:45:32.614Z,59.55
2022-08-17T04:48:00.818Z,57.13
2022-08-17T04:50:28.413Z,55.10
2022-08-17T04:52:57.710Z,55.07
2022-08-17T04:55:25.400Z,51.47
2022-08-17T04:57:52.989Z,50.31
2022-08-17T05:00:20.725Z,49.35
2022-08-17T05:02:50.736Z,48.83
2022-08-17T05:05:20.786Z,47.17
2022-08-17T05:07:48.615Z,46.96
2022-08-17T05:10:17.749Z,46.33
2022-08-17T05:12:45.255Z,45.04
2022-08-17T05:15:15.884Z,44.90
2022-08-17T05:17:43.564Z,44.02
2022-08-17T05:20:12.125Z,42.17
2022-08-17T05:22:49.186Z,41.00
2022-08-17T05:25:19.765Z,39.97
2022-08-17T05:45:42.781Z,37.63
2022-08-17T05:48:13.698Z,36.34
2022-08-17T05:50:50.462Z,37.68
2022-08-17T05:53:25.319Z,37.18
2022-08-17T05:56:04.258Z,34.81
2022-08-17T05:58:38.812Z,34.10
2022-08-17T06:01:12.424Z,32.43
2022-08-17T06:03:48.795Z,32.28
2022-08-17T06:06:33.056Z,32.20
2022-08-17T06:09:18.733Z,34.14
2022-08-17T06:11:58.634Z,37.35
2022-08-17T06:14:40.168Z,36.89
2022-08-17T06:17:14.732Z,35.75
2022-08-17T06:19:46.669Z,36.47
2022-08-17T06:22:17.651Z,36.42
2022-08-17T06:24:49.951Z,36.00
2022-08-17T06:27:24.391Z,37.52
2022-08-17T06:29:57.681Z,38.46
2022-08-17T06:32:26.986Z,37.38
2022-08-17T06:34:55.237Z,35.50
2022-08-17T06:37:54.785Z,34.68
2022-08-17T06:40:40.059Z,34.18
2022-08-17T06:43:24.685Z,32.69
2022-08-17T06:45:58.572Z,32.20
2022-08-17T06:48:36.321Z,32.53
2022-08-17T06:51:09.264Z,35.13
2022-08-17T06:53:43.088Z,36.35
2022-08-17T06:56:13.868Z,35.75
2022-08-17T06:58:44.265Z,33.59
2022-08-17T07:01:16.089Z,30.87
2022-08-17T07:03:54.547Z,29.72
2022-08-17T07:06:25.979Z,29.68
2022-08-17T07:08:59.264Z,29.87
2022-08-17T07:11:31.341Z,30.34
2022-08-17T07:14:15.308Z,29.77
2022-08-17T07:16:49.703Z,30.11
2022-08-17T07:19:22.712Z,30.54
2022-08-17T07:21:57.988Z,29.55
2022-08-17T07:24:37.869Z,30.88
2022-08-17T07:27:13.534Z,27.91
2022-08-17T07:29:49.384Z,27.40
2022-08-17T07:32:23.154Z,27.98
2022-08-17T07:35:12.904Z,28.84
2022-08-17T07:37:45.867Z,29.68
2022-08-17T07:40:26.963Z,29.03
2022-08-17T07:43:23.401Z,27.25
2022-08-17T07:46:14.553Z,25.50
2022-08-17T07:48:44.327Z,24.89
2022-08-17T07:51:23.024Z,25.14
2022-08-17T07:53:50.611Z,25.12
2022-08-17T07:56:38.548Z,24.28
2022-08-17T07:59:13.007Z,24.02
2022-08-17T08:01:43.099Z,23.16
2022-08-17T08:04:59.348Z,22.91
2022-08-17T08:07:26.903Z,22.41
2022-08-17T08:10:03.909Z,22.35
2022-08-17T08:12:34.589Z,22.27
2022-08-17T08:15:09.655Z,24.00
2022-08-17T08:17:47.451Z,24.99
2022-08-17T08:20:47.701Z,24.22
2022-08-17T08:23:15.406Z,24.29
2022-08-17T08:25:53.602Z,24.02
2022-08-17T08:28:30.868Z,23.73
2022-08-17T08:31:08.611Z,23.90
2022-08-17T08:33:49.796Z,24.33
2022-08-17T08:37:09.715Z,24.82
2022-08-17T08:39:35.253Z,23.56
2022-08-17T08:42:10.197Z,23.76
2022-08-17T08:45:00.473Z,22.00
2022-08-17T08:47:50.128Z,21.21
2022-08-17T08:50:37.395Z,20.57
2022-08-17T08:53:21.254Z,21.19
2022-08-17T08:55:55.744Z,22.43
2022-08-17T08:58:41.977Z,22.20
2022-08-17T09:01:19.210Z,22.55
2022-08-17T09:04:12.029Z,23.22
2022-08-17T09:06:56.443Z,22.38
2022-08-17T09:09:36.462Z,22.87
2022-08-17T09:12:13.191Z,21.19
2022-08-17T09:14:48.715Z,22.31
2022-08-17T09:17:20.213Z,22.94
2022-08-17T09:19:52.764Z,24.02
2022-08-17T09:22:31.276Z,23.80
2022-08-17T09:25:08.909Z,24.30
2022-08-17T09:27:49.586Z,23.75
2022-08-17T09:30:18.265Z,24.17
2022-08-17T09:32:52.044Z,25.16
2022-08-17T09:35:22.837Z,24.70
2022-08-17T09:38:02.723Z,24.68
2022-08-17T09:40:35.462Z,25.29
2022-08-17T09:43:13.070Z,25.06
2022-08-17T09:45:46.092Z,25.65
2022-08-17T09:48:19.406Z,26.07
2022-08-17T09:51:06.035Z,24.82
2022-08-17T09:53:36.395Z,23.98
2022-08-17T09:56:30.053Z,23.85
2022-08-17T09:59:23.366Z,23.30
2022-08-17T10:02:02.916Z,22.86
2022-08-17T10:04:48.216Z,22.45
2022-08-17T10:07:21.215Z,21.32
2022-08-17T10:10:00.722Z,21.72
2022-08-17T10:12:39.929Z,22.76
2022-08-17T10:15:25.805Z,22.31
2022-08-17T10:18:34.890Z,20.76
2022-08-17T10:21:27.696Z,22.25
2022-08-17T10:24:23.070Z,22.70
2022-08-17T10:26:57.125Z,22.75
2022-08-17T10:29:40.774Z,22.77
2022-08-17T10:32:30.042Z,22.21
2022-08-17T10:35:12.835Z,22.52
2022-08-17T10:38:07.315Z,23.38
2022-08-17T10:40:45.288Z,22.18
2022-08-17T10:43:24.724Z,22.30
2022-08-17T10:46:10.593Z,22.55
2022-08-17T10:49:23.046Z,22.40
2022-08-17T10:51:53.421Z,22.29
2022-08-17T10:54:45.610Z,22.44
2022-08-17T10:57:37.265Z,23.42
2022-08-17T11:00:10.159Z,23.44
2022-08-17T11:02:49.347Z,22.81
2022-08-17T11:05:53.815Z,22.65
2022-08-17T11:08:47.848Z,21.59
2022-08-17T11:11:35.891Z,21.29
2022-08-17T11:14:21.383Z,21.93
2022-08-17T11:17:07.383Z,20.56
2022-08-17T11:19:52.300Z,20.63
2022-08-17T11:22:40.406Z,21.02
2022-08-17T11:25:16.206Z,20.01
2022-08-17T11:27:44.941Z,18.59
2022-08-17T11:30:14.864Z,18.36
2022-08-17T11:32:47.577Z,18.93
2022-08-17T11:35:31.840Z,19.89
2022-08-17T11:38:16.831Z,20.30
2022-08-17T11:41:11.677Z,21.52
2022-08-17T11:44:05.373Z,23.54
2022-08-17T11:47:08.534Z,22.01
2022-08-17T11:50:15.107Z,20.01
2022-08-17T11:52:46.714Z,18.25
2022-08-17T11:55:47.523Z,16.19
2022-08-17T11:58:37.342Z,17.66
2022-08-17T12:01:06.858Z,18.61
2022-08-17T12:03:54.038Z,18.16
2022-08-17T12:06:31.186Z,19.44
2022-08-17T12:09:06.636Z,19.77
2022-08-17T12:11:55.688Z,19.52
2022-08-17T12:14:51.663Z,18.63
2022-08-17T12:17:52.057Z,18.38
2022-08-17T12:20:16.201Z,19.23
2022-08-17T12:22:54.729Z,18.80
2022-08-17T12:25:31.356Z,18.27
2022-08-17T12:28:06.808Z,17.63
2022-08-17T12:30:37.348Z,17.95
2022-08-17T12:33:12.594Z,17.65
2022-08-17T12:35:40.124Z,16.92
2022-08-17T12:38:32.516Z,16.82
2022-08-17T12:40:59.724Z,16.82
2022-08-17T12:43:31.100Z,16.75
2022-08-17T12:46:13.292Z,17.08
2022-08-17T12:48:59.104Z,18.28
2022-08-17T12:51:27.549Z,17.26
2022-08-17T12:53:55.971Z,17.49
2022-08-17T12:56:23.712Z,19.66
2022-08-17T12:58:55.459Z,21.62
2022-08-17T13:01:27.028Z,21.56
2022-08-17T13:03:59.646Z,21.92
2022-08-17T13:06:30.125Z,21.10
2022-08-17T13:08:58.059Z,20.72
2022-08-17T13:11:26.247Z,21.01
2022-08-17T13:13:56.128Z,19.54
2022-08-17T13:16:28.003Z,19.27
2022-08-17T13:19:05.809Z,19.88
2022-08-17T13:21:34.301Z,20.35
2022-08-17T13:24:05.848Z,18.99
2022-08-17T13:26:36.609Z,18.98
2022-08-17T13:29:07.803Z,18.85
2022-08-17T13:31:52.434Z,19.68
2022-08-17T13:35:11.813Z,20.83
2022-08-17T13:37:32.608Z,22.25
2022-08-17T13:40:05.935Z,23.66
2022-08-17T13:42:51.985Z,22.85
2022-08-17T13:45:53.260Z,20.23
2022-08-17T13:48:25.692Z,18.38
2022-08-17T13:51:29.780Z,18.04
2022-08-17T13:54:01.848Z,18.40
2022-08-17T13:56:39.677Z,17.26
2022-08-17T13:59:12.277Z,16.82
2022-08-17T14:01:42.315Z,16.62
2022-08-17T14:04:14.201Z,17.68
2022-08-17T14:06:53.441Z,19.44
2022-08-17T14:09:24.241Z,19.62
2022-08-17T14:11:52.638Z,20.35
2022-08-17T14:14:20.180Z,21.25
2022-08-17T14:16:48.385Z,20.56
2022-08-17T14:19:17.582Z,20.87
2022-08-17T14:21:47.266Z,21.05
2022-08-17T14:24:23.046Z,20.03
2022-08-17T14:26:52.859Z,19.75
2022-08-17T14:29:20.991Z,19.78
2022-08-17T14:31:54.606Z,19.24
2022-08-17T14:34:24.630Z,19.53
2022-08-17T14:36:52.521Z,18.46
2022-08-17T14:39:20.565Z,18.95
2022-08-17T14:41:48.196Z,20.79
2022-08-17T14:44:15.931Z,21.35
2022-08-17T14:46:46.258Z,21.72
2022-08-17T14:49:15.522Z,21.71
2022-08-17T14:51:44.780Z,21.29
2022-08-17T14:54:32.867Z,20.72
2022-08-17T14:57:24.767Z,20.08
2022-08-17T14:59:48.825Z,20.80
2022-08-17T15:02:19.469Z,21.75
2022-08-17T15:04:47.767Z,22.81
2022-08-17T15:07:16.688Z,21.96
2022-08-17T15:09:44.531Z,20.33
2022-08-17T15:12:17.804Z,19.98
2022-08-17T15:14:45.300Z,20.15
2022-08-17T15:17:12.865Z,20.36
2022-08-17T15:19:40.552Z,20.09
2022-08-17T15:22:16.751Z,19.91
2022-08-17T15:24:45.566Z,19.92
2022-08-17T15:27:13.119Z,19.49
2022-08-17T15:29:40.640Z,18.90
2022-08-17T15:32:08.230Z,19.30
2022-08-17T15:34:36.396Z,18.64
2022-08-17T15:37:04.011Z,19.15
2022-08-17T15:39:31.520Z,19.52
2022-08-17T15:42:04.604Z,21.82
2022-08-17T15:44:35.118Z,20.96
2022-08-17T15:47:02.805Z,20.70
2022-08-17T15:49:30.294Z,20.45
2022-08-17T15:51:57.784Z,20.16
2022-08-17T15:54:25.287Z,19.65
2022-08-17T15:56:59.236Z,19.88
2022-08-17T15:59:30.890Z,19.76
2022-08-17T16:03:14.239Z,22.92
2022-08-17T16:04:47.145Z,23.39
2022-08-17T16:07:17.024Z,23.60
2022-08-17T16:09:44.937Z,22.62
2022-08-17T16:12:13.967Z,21.48
2022-08-17T16:14:42.826Z,21.73
2022-08-17T16:17:38.325Z,21.50
2022-08-17T16:19:57.860Z,22.49
2022-08-17T16:22:32.280Z,22.95
2022-08-17T16:25:00.372Z,23.01
2022-08-17T16:27:27.844Z,23.95
2022-08-17T16:29:56.932Z,26.20
2022-08-17T16:32:31.937Z,26.64
2022-08-17T16:35:02.877Z,27.04
2022-08-17T16:37:31.083Z,28.11
2022-08-17T16:40:01.895Z,27.71
2022-08-17T16:42:32.671Z,27.72
2022-08-17T16:45:07.193Z,28.10
2022-08-17T16:47:34.691Z,28.46
2022-08-17T16:50:03.695Z,28.87
2022-08-17T16:52:33.418Z,28.89
2022-08-17T16:55:01.923Z,28.83
2022-08-17T16:57:30.400Z,28.79
2022-08-17T16:59:58.387Z,28.23
2022-08-17T17:02:31.216Z,28.70
2022-08-17T17:05:07.440Z,27.88
2022-08-17T17:07:55.407Z,28.04
2022-08-17T17:10:27.252Z,26.91
2022-08-17T17:13:01.724Z,26.67
2022-08-17T17:15:45.133Z,26.53
2022-08-17T17:18:15.308Z,26.76
2022-08-17T17:20:48.555Z,26.18
2022-08-17T17:23:36.895Z,26.13
2022-08-17T17:26:15.799Z,26.88
2022-08-17T17:28:59.572Z,27.25
2022-08-17T17:31:34.149Z,28.25
2022-08-17T17:34:05.403Z,28.56
2022-08-17T17:36:40.213Z,28.28
2022-08-17T17:39:12.982Z,28.15
2022-08-17T17:41:47.092Z,28.36
2022-08-17T17:44:19.893Z,28.88
2022-08-17T17:46:54.027Z,30.07
2022-08-17T17:49:23.228Z,30.91
2022-08-17T17:52:10.042Z,30.90
2022-08-17T17:54:52.308Z,30.49
2022-08-17T17:57:26.245Z,31.00
2022-08-17T18:00:01.427Z,31.70
2022-08-17T18:02:52.183Z,31.97
2022-08-17T18:05:48.233Z,32.26
2022-08-17T18:08:32.165Z,32.46
2022-08-17T18:11:10.405Z,33.99
2022-08-17T18:14:03.419Z,34.67
2022-08-17T18:16:32.963Z,34.89
2022-08-17T18:19:01.378Z,35.29
2022-08-17T18:21:37.688Z,35.43
2022-08-17T18:24:10.422Z,36.25
2022-08-17T18:26:44.657Z,37.03
2022-08-17T18:29:31.061Z,36.71
2022-08-17T18:32:31.076Z,37.01
2022-08-17T18:35:02.250Z,37.54
2022-08-17T18:37:42.544Z,38.56
2022-08-17T18:40:36.038Z,38.56
2022-08-17T18:43:08.503Z,38.71
2022-08-17T18:45:40.752Z,39.85
2022-08-17T18:48:21.553Z,40.75
2022-08-17T18:50:52.246Z,40.83
2022-08-17T18:53:30.397Z,40.23
2022-08-17T18:56:28.286Z,41.41
2022-08-17T18:59:06.041Z,44.04
2022-08-17T19:01:53.421Z,43.13
2022-08-17T19:04:34.104Z,42.26
2022-08-17T19:07:13.636Z,40.97
2022-08-17T19:09:47.931Z,41.07
2022-08-17T19:12:27.271Z,41.73
2022-08-17T19:14:57.819Z,41.88
2022-08-17T19:17:32.690Z,41.81
2022-08-17T19:20:06.339Z,42.19
2022-08-17T19:22:44.707Z,42.86
2022-08-17T19:25:16.938Z,42.89
2022-08-17T19:27:51.353Z,42.81
2022-08-17T19:30:25.872Z,42.76
2022-08-17T19:32:53.918Z,43.52
2022-08-17T19:35:25.694Z,44.26
2022-08-17T19:38:03.963Z,44.44
2022-08-17T19:40:52.713Z,44.52
2022-08-17T19:43:27.873Z,44.86
2022-08-17T19:46:03.791Z,45.56
2022-08-17T19:48:42.715Z,47.08
2022-08-17T19:51:15.422Z,46.85
2022-08-17T19:54:05.433Z,45.55
2022-08-17T19:56:45.400Z,45.23
2022-08-17T19:59:22.152Z,45.07
2022-08-17T20:01:53.732Z,45.17
2022-08-17T20:04:36.536Z,44.93
2022-08-17T20:07:07.914Z,45.26
2022-08-17T20:09:38.595Z,45.59
2022-08-17T20:12:11.524Z,45.44
2022-08-17T20:14:55.686Z,46.07
2022-08-17T20:17:26.024Z,47.30
2022-08-17T20:20:02.514Z,47.03
2022-08-17T20:22:46.740Z,46.61
2022-08-17T20:25:29.854Z,46.42
2022-08-17T20:28:06.851Z,45.85
2022-08-17T20:30:39.465Z,45.83
2022-08-17T20:33:13.101Z,46.03
2022-08-17T20:35:41.321Z,46.15
2022-08-17T20:38:11.524Z,46.07
2022-08-17T20:40:41.068Z,46.15
2022-08-17T20:43:46.730Z,46.07
2022-08-17T20:46:24.690Z,46.59
2022-08-17T20:48:55.443Z,46.94
2022-08-17T20:51:28.073Z,46.20
2022-08-17T20:54:09.027Z,45.85
2022-08-17T20:56:54.910Z,46.74
2022-08-17T20:59:56.277Z,45.30
2022-08-17T21:02:26.433Z,44.70
2022-08-17T21:05:17.350Z,43.77
2022-08-17T21:07:58.804Z,44.02
2022-08-17T21:10:38.309Z,45.57
2022-08-17T21:13:28.270Z,47.56
2022-08-17T21:16:01.881Z,46.05
2022-08-17T21:18:38.550Z,45.85
2022-08-17T21:21:20.433Z,45.36
2022-08-17T21:24:08.972Z,44.44
2022-08-17T21:26:51.102Z,44.48
2022-08-17T21:29:30.906Z,44.56
2022-08-17T21:32:24.736Z,44.07
2022-08-17T21:35:27.229Z,44.17
2022-08-17T21:37:59.572Z,44.20
2022-08-17T21:40:29.354Z,44.14
2022-08-17T21:43:00.189Z,43.63
2022-08-17T21:45:35.480Z,44.16
2022-08-17T21:48:19.691Z,43.53
2022-08-17T21:50:58.253Z,44.03
2022-08-17T21:53:33.270Z,44.09
2022-08-17T21:56:01.598Z,44.51
2022-08-17T21:58:32.199Z,44.73
2022-08-17T22:01:23.976Z,44.51
2022-08-17T22:03:59.819Z,44.15
2022-08-17T22:06:30.228Z,44.59
2022-08-17T22:09:04.519Z,45.22
2022-08-17T22:11:33.091Z,45.09
2022-08-17T22:14:05.890Z,45.18
2022-08-17T22:16:33.828Z,45.43
2022-08-17T22:19:02.779Z,44.55
2022-08-17T22:21:30.311Z,44.71
2022-08-17T22:24:04.859Z,44.60
2022-08-17T22:26:59.403Z,44.39
2022-08-17T22:29:52.894Z,44.63
2022-08-17T22:32:38.370Z,45.07
2022-08-17T22:35:39.780Z,45.09
2022-08-17T22:38:30.873Z,44.53
2022-08-17T22:41:31.884Z,44.44
2022-08-17T22:44:02.316Z,44.68
2022-08-17T22:46:30.508Z,44.50
2022-08-17T22:49:00.314Z,44.47
2022-08-17T22:51:31.881Z,44.03
2022-08-17T22:54:19.548Z,44.07
2022-08-17T22:57:18.927Z,43.80
2022-08-17T22:59:49.369Z,44.22
2022-08-17T23:02:23.506Z,44.58
2022-08-17T23:04:54.230Z,43.91
2022-08-17T23:07:23.083Z,43.43
2022-08-17T23:09:52.664Z,44.08
2022-08-17T23:12:26.231Z,43.55
2022-08-17T23:14:58.409Z,43.15
2022-08-17T23:17:26.000Z,43.40
2022-08-17T23:19:54.727Z,41.73
2022-08-17T23:22:25.236Z,42.85
2022-08-17T23:24:52.826Z,43.71
2022-08-17T23:27:22.088Z,42.97
2022-08-17T23:29:50.419Z,41.04
2022-08-17T23:32:19.091Z,40.95
2022-08-17T23:34:48.001Z,45.88
2022-08-17T23:37:16.717Z,44.42
2022-08-17T23:39:46.283Z,42.31
2022-08-17T23:42:21.553Z,41.24
2022-08-17T23:44:50.191Z,41.39
2022-08-17T23:47:17.895Z,41.28
2022-08-17T23:49:45.621Z,40.20
2022-08-17T23:52:16.526Z,40.28
2022-08-17T23:54:47.793Z,41.10
2022-08-17T23:57:19.102Z,42.03
2022-08-17T23:59:46.946Z,41.92
